sensor_id;sensor_type;location;lat;lon;timestamp;P1;durP1;ratioP1;P2;durP2;ratioP2
17727;SDS011;8984;49.268;12.302;2023-04-16T00:01:00;7.67;;;5.30;;
17727;SDS011;8984;49.268;12.302;2023-04-16T00:03:27;7.27;;;6.10;;
17727;SDS011;8984;49.268;12.302;2023-04-16T00:05:54;5.10;;;4.60;;
17727;SDS011;8984;49.268;12.302;2023-04-16T00:08:20;6.00;;;5.40;;
17727;SDS011;8984;49.268;12.302;2023-04-16T00:10:48;6.07;;;5.47;;
17727;SDS011;8984;49.268;12.302;2023-04-16T00:13:17;5.87;;;5.27;;
17727;SDS011;8984;49.268;12.302;2023-04-16T00:15:43;7.27;;;5.83;;
17727;SDS011;8984;49.268;12.302;2023-04-16T00:18:10;7.83;;;5.77;;
17727;SDS011;8984;49.268;12.302;2023-04-16T00:20:38;6.90;;;6.20;;
17727;SDS011;8984;49.268;12.302;2023-04-16T00:23:04;6.67;;;5.97;;
17727;SDS011;8984;49.268;12.302;2023-04-16T00:25:31;6.07;;;5.40;;
17727;SDS011;8984;49.268;12.302;2023-04-16T00:27:58;7.60;;;6.60;;
17727;SDS011;8984;49.268;12.302;2023-04-16T00:30:26;8.27;;;7.13;;
17727;SDS011;8984;49.268;12.302;2023-04-16T00:32:53;8.30;;;7.27;;
17727;SDS011;8984;49.268;12.302;2023-04-16T00:35:20;7.90;;;7.07;;
17727;SDS011;8984;49.268;12.302;2023-04-16T00:37:47;10.20;;;7.70;;
17727;SDS011;8984;49.268;12.302;2023-04-16T00:40:13;8.63;;;7.07;;
17727;SDS011;8984;49.268;12.302;2023-04-16T00:42:40;8.27;;;7.10;;
17727;SDS011;8984;49.268;12.302;2023-04-16T00:45:07;6.50;;;5.90;;
17727;SDS011;8984;49.268;12.302;2023-04-16T00:47:37;9.53;;;8.17;;
17727;SDS011;8984;49.268;12.302;2023-04-16T00:50:04;8.20;;;7.20;;
17727;SDS011;8984;49.268;12.302;2023-04-16T00:52:31;11.37;;;9.20;;
17727;SDS011;8984;49.268;12.302;2023-04-16T00:54:59;9.70;;;8.23;;
17727;SDS011;8984;49.268;12.302;2023-04-16T00:57:26;10.53;;;9.10;;
17727;SDS011;8984;49.268;12.302;2023-04-16T00:59:53;9.70;;;8.70;;
17727;SDS011;8984;49.268;12.302;2023-04-16T01:02:20;8.90;;;8.00;;
17727;SDS011;8984;49.268;12.302;2023-04-16T01:04:48;8.50;;;7.70;;
17727;SDS011;8984;49.268;12.302;2023-04-16T01:07:15;9.37;;;7.83;;
17727;SDS011;8984;49.268;12.302;2023-04-16T01:09:42;9.80;;;7.17;;
17727;SDS011;8984;49.268;12.302;2023-04-16T01:12:09;9.80;;;8.13;;
17727;SDS011;8984;49.268;12.302;2023-04-16T01:14:36;8.67;;;7.77;;
17727;SDS011;8984;49.268;12.302;2023-04-16T01:17:02;8.90;;;7.07;;
17727;SDS011;8984;49.268;12.302;2023-04-16T01:19:29;9.47;;;7.87;;
17727;SDS011;8984;49.268;12.302;2023-04-16T01:21:58;9.17;;;7.53;;
17727;SDS011;8984;49.268;12.302;2023-04-16T01:24:24;9.03;;;7.83;;
17727;SDS011;8984;49.268;12.302;2023-04-16T01:26:51;8.37;;;7.47;;
17727;SDS011;8984;49.268;12.302;2023-04-16T01:29:18;8.63;;;7.73;;
17727;SDS011;8984;49.268;12.302;2023-04-16T01:31:45;9.40;;;8.23;;
17727;SDS011;8984;49.268;12.302;2023-04-16T01:34:12;10.87;;;8.93;;
17727;SDS011;8984;49.268;12.302;2023-04-16T01:36:38;11.07;;;9.27;;
17727;SDS011;8984;49.268;12.302;2023-04-16T01:39:07;8.67;;;7.77;;
17727;SDS011;8984;49.268;12.302;2023-04-16T01:41:35;11.43;;;9.47;;
17727;SDS011;8984;49.268;12.302;2023-04-16T01:44:02;10.27;;;9.13;;
17727;SDS011;8984;49.268;12.302;2023-04-16T01:46:30;10.20;;;9.10;;
17727;SDS011;8984;49.268;12.302;2023-04-16T01:48:58;10.13;;;9.03;;
17727;SDS011;8984;49.268;12.302;2023-04-16T01:51:26;11.37;;;9.00;;
17727;SDS011;8984;49.268;12.302;2023-04-16T01:53:53;10.30;;;8.57;;
17727;SDS011;8984;49.268;12.302;2023-04-16T01:56:23;8.93;;;8.00;;
17727;SDS011;8984;49.268;12.302;2023-04-16T01:58:50;9.20;;;8.30;;
17727;SDS011;8984;49.268;12.302;2023-04-16T02:01:17;9.47;;;8.47;;
17727;SDS011;8984;49.268;12.302;2023-04-16T02:03:44;10.33;;;8.50;;
17727;SDS011;8984;49.268;12.302;2023-04-16T02:06:11;8.90;;;8.00;;
17727;SDS011;8984;49.268;12.302;2023-04-16T02:08:38;8.43;;;7.60;;
17727;SDS011;8984;49.268;12.302;2023-04-16T02:11:05;9.20;;;7.87;;
17727;SDS011;8984;49.268;12.302;2023-04-16T02:13:33;9.87;;;8.87;;
17727;SDS011;8984;49.268;12.302;2023-04-16T02:16:00;8.80;;;7.90;;
17727;SDS011;8984;49.268;12.302;2023-04-16T02:18:27;8.47;;;7.50;;
17727;SDS011;8984;49.268;12.302;2023-04-16T02:20:56;10.03;;;8.80;;
17727;SDS011;8984;49.268;12.302;2023-04-16T02:23:23;10.57;;;9.03;;
17727;SDS011;8984;49.268;12.302;2023-04-16T02:25:50;8.87;;;8.00;;
17727;SDS011;8984;49.268;12.302;2023-04-16T02:28:17;10.53;;;8.40;;
17727;SDS011;8984;49.268;12.302;2023-04-16T02:30:45;8.80;;;7.83;;
17727;SDS011;8984;49.268;12.302;2023-04-16T02:33:12;8.07;;;7.27;;
17727;SDS011;8984;49.268;12.302;2023-04-16T02:35:39;7.90;;;7.10;;
17727;SDS011;8984;49.268;12.302;2023-04-16T02:38:06;9.20;;;8.23;;
17727;SDS011;8984;49.268;12.302;2023-04-16T02:40:33;7.80;;;7.00;;
17727;SDS011;8984;49.268;12.302;2023-04-16T02:43:00;9.00;;;7.10;;
17727;SDS011;8984;49.268;12.302;2023-04-16T02:45:27;8.53;;;7.63;;
17727;SDS011;8984;49.268;12.302;2023-04-16T02:47:56;7.83;;;7.03;;
17727;SDS011;8984;49.268;12.302;2023-04-16T02:50:23;9.17;;;8.20;;
17727;SDS011;8984;49.268;12.302;2023-04-16T02:52:50;7.70;;;6.90;;
17727;SDS011;8984;49.268;12.302;2023-04-16T02:55:17;9.33;;;7.50;;
17727;SDS011;8984;49.268;12.302;2023-04-16T02:57:44;8.90;;;7.37;;
17727;SDS011;8984;49.268;12.302;2023-04-16T03:00:11;7.83;;;6.90;;
17727;SDS011;8984;49.268;12.302;2023-04-16T03:02:38;7.90;;;7.03;;
17727;SDS011;8984;49.268;12.302;2023-04-16T03:05:07;8.27;;;7.30;;
17727;SDS011;8984;49.268;12.302;2023-04-16T03:07:34;8.13;;;7.07;;
17727;SDS011;8984;49.268;12.302;2023-04-16T03:10:03;8.67;;;7.60;;
17727;SDS011;8984;49.268;12.302;2023-04-16T03:12:31;9.33;;;7.23;;
17727;SDS011;8984;49.268;12.302;2023-04-16T03:14:57;7.90;;;6.93;;
17727;SDS011;8984;49.268;12.302;2023-04-16T03:17:24;9.40;;;7.83;;
17727;SDS011;8984;49.268;12.302;2023-04-16T03:19:51;8.37;;;7.23;;
17727;SDS011;8984;49.268;12.302;2023-04-16T03:22:19;7.27;;;6.57;;
17727;SDS011;8984;49.268;12.302;2023-04-16T03:24:46;8.33;;;7.47;;
17727;SDS011;8984;49.268;12.302;2023-04-16T03:27:13;9.70;;;7.83;;
17727;SDS011;8984;49.268;12.302;2023-04-16T03:29:39;8.73;;;7.83;;
17727;SDS011;8984;49.268;12.302;2023-04-16T03:32:06;8.20;;;7.30;;
17727;SDS011;8984;49.268;12.302;2023-04-16T03:34:33;10.03;;;7.20;;
17727;SDS011;8984;49.268;12.302;2023-04-16T03:37:00;9.90;;;8.67;;
17727;SDS011;8984;49.268;12.302;2023-04-16T03:39:30;10.27;;;8.93;;
17727;SDS011;8984;49.268;12.302;2023-04-16T03:41:57;10.13;;;8.90;;
17727;SDS011;8984;49.268;12.302;2023-04-16T03:44:24;11.07;;;9.60;;
17727;SDS011;8984;49.268;12.302;2023-04-16T03:46:51;12.93;;;10.83;;
17727;SDS011;8984;49.268;12.302;2023-04-16T03:49:17;13.43;;;11.53;;
17727;SDS011;8984;49.268;12.302;2023-04-16T03:51:44;14.93;;;11.90;;
17727;SDS011;8984;49.268;12.302;2023-04-16T03:54:11;15.17;;;11.77;;
17727;SDS011;8984;49.268;12.302;2023-04-16T03:56:40;15.13;;;12.37;;
17727;SDS011;8984;49.268;12.302;2023-04-16T03:59:07;14.93;;;12.40;;
17727;SDS011;8984;49.268;12.302;2023-04-16T04:01:34;15.63;;;12.67;;
17727;SDS011;8984;49.268;12.302;2023-04-16T04:04:00;13.10;;;10.90;;
17727;SDS011;8984;49.268;12.302;2023-04-16T04:06:27;13.00;;;11.33;;
17727;SDS011;8984;49.268;12.302;2023-04-16T04:08:54;12.33;;;11.03;;
17727;SDS011;8984;49.268;12.302;2023-04-16T04:11:21;12.63;;;11.17;;
17727;SDS011;8984;49.268;12.302;2023-04-16T04:13:49;16.03;;;12.87;;
17727;SDS011;8984;49.268;12.302;2023-04-16T04:16:16;12.90;;;11.30;;
17727;SDS011;8984;49.268;12.302;2023-04-16T04:18:43;12.13;;;10.83;;
17727;SDS011;8984;49.268;12.302;2023-04-16T04:21:10;13.30;;;11.17;;
17727;SDS011;8984;49.268;12.302;2023-04-16T04:23:38;12.97;;;11.50;;
17727;SDS011;8984;49.268;12.302;2023-04-16T04:26:05;16.17;;;13.30;;
17727;SDS011;8984;49.268;12.302;2023-04-16T04:28:32;15.07;;;12.83;;
17727;SDS011;8984;49.268;12.302;2023-04-16T04:31:01;14.33;;;12.03;;
17727;SDS011;8984;49.268;12.302;2023-04-16T04:33:28;15.40;;;12.77;;
17727;SDS011;8984;49.268;12.302;2023-04-16T04:35:55;14.03;;;11.83;;
17727;SDS011;8984;49.268;12.302;2023-04-16T04:38:21;15.90;;;13.23;;
17727;SDS011;8984;49.268;12.302;2023-04-16T04:40:49;16.10;;;13.17;;
17727;SDS011;8984;49.268;12.302;2023-04-16T04:43:16;14.70;;;12.67;;
17727;SDS011;8984;49.268;12.302;2023-04-16T04:45:43;16.10;;;13.37;;
17727;SDS011;8984;49.268;12.302;2023-04-16T04:48:11;14.97;;;12.80;;
17727;SDS011;8984;49.268;12.302;2023-04-16T04:50:38;16.07;;;13.13;;
17727;SDS011;8984;49.268;12.302;2023-04-16T04:53:05;15.80;;;12.80;;
17727;SDS011;8984;49.268;12.302;2023-04-16T04:55:34;13.67;;;11.87;;
17727;SDS011;8984;49.268;12.302;2023-04-16T04:58:01;15.00;;;12.33;;
17727;SDS011;8984;49.268;12.302;2023-04-16T05:00:29;16.50;;;12.87;;
17727;SDS011;8984;49.268;12.302;2023-04-16T05:02:56;14.50;;;12.60;;
17727;SDS011;8984;49.268;12.302;2023-04-16T05:05:24;14.57;;;11.93;;
17727;SDS011;8984;49.268;12.302;2023-04-16T05:07:51;14.23;;;12.73;;
17727;SDS011;8984;49.268;12.302;2023-04-16T05:10:18;15.73;;;12.90;;
17727;SDS011;8984;49.268;12.302;2023-04-16T05:12:45;16.30;;;13.40;;
17727;SDS011;8984;49.268;12.302;2023-04-16T05:15:12;15.60;;;12.27;;
17727;SDS011;8984;49.268;12.302;2023-04-16T05:17:39;14.37;;;11.73;;
17727;SDS011;8984;49.268;12.302;2023-04-16T05:20:07;13.57;;;12.07;;
17727;SDS011;8984;49.268;12.302;2023-04-16T05:22:36;17.13;;;13.67;;
17727;SDS011;8984;49.268;12.302;2023-04-16T05:25:03;14.27;;;11.07;;
17727;SDS011;8984;49.268;12.302;2023-04-16T05:27:31;13.23;;;11.00;;
17727;SDS011;8984;49.268;12.302;2023-04-16T05:29:57;14.33;;;12.20;;
17727;SDS011;8984;49.268;12.302;2023-04-16T05:32:24;16.27;;;13.33;;
17727;SDS011;8984;49.268;12.302;2023-04-16T05:34:51;17.30;;;13.97;;
17727;SDS011;8984;49.268;12.302;2023-04-16T05:37:18;15.10;;;12.87;;
17727;SDS011;8984;49.268;12.302;2023-04-16T05:39:47;14.27;;;12.33;;
17727;SDS011;8984;49.268;12.302;2023-04-16T05:42:13;16.50;;;13.43;;
17727;SDS011;8984;49.268;12.302;2023-04-16T05:44:40;15.27;;;12.90;;
17727;SDS011;8984;49.268;12.302;2023-04-16T05:47:07;15.80;;;12.37;;
17727;SDS011;8984;49.268;12.302;2023-04-16T05:49:34;15.10;;;12.37;;
17727;SDS011;8984;49.268;12.302;2023-04-16T05:52:01;17.73;;;13.93;;
17727;SDS011;8984;49.268;12.302;2023-04-16T05:54:28;20.33;;;15.70;;
17727;SDS011;8984;49.268;12.302;2023-04-16T05:56:56;24.30;;;17.73;;
17727;SDS011;8984;49.268;12.302;2023-04-16T05:59:25;19.10;;;15.03;;
17727;SDS011;8984;49.268;12.302;2023-04-16T06:01:51;18.87;;;14.40;;
17727;SDS011;8984;49.268;12.302;2023-04-16T06:04:18;19.33;;;15.30;;
17727;SDS011;8984;49.268;12.302;2023-04-16T06:06:45;19.37;;;14.73;;
17727;SDS011;8984;49.268;12.302;2023-04-16T06:09:11;18.10;;;14.03;;
17727;SDS011;8984;49.268;12.302;2023-04-16T06:11:38;17.27;;;13.90;;
17727;SDS011;8984;49.268;12.302;2023-04-16T06:14:06;25.43;;;17.53;;
17727;SDS011;8984;49.268;12.302;2023-04-16T06:16:33;20.87;;;15.50;;
17727;SDS011;8984;49.268;12.302;2023-04-16T06:19:00;18.70;;;13.43;;
17727;SDS011;8984;49.268;12.302;2023-04-16T06:21:27;19.13;;;13.93;;
17727;SDS011;8984;49.268;12.302;2023-04-16T06:23:55;14.80;;;12.50;;
17727;SDS011;8984;49.268;12.302;2023-04-16T06:26:22;16.33;;;12.83;;
17727;SDS011;8984;49.268;12.302;2023-04-16T06:28:49;14.37;;;11.17;;
17727;SDS011;8984;49.268;12.302;2023-04-16T06:31:17;17.37;;;13.17;;
17727;SDS011;8984;49.268;12.302;2023-04-16T06:33:44;14.90;;;12.00;;
17727;SDS011;8984;49.268;12.302;2023-04-16T06:36:11;13.30;;;10.80;;
17727;SDS011;8984;49.268;12.302;2023-04-16T06:38:38;13.20;;;10.83;;
17727;SDS011;8984;49.268;12.302;2023-04-16T06:41:04;12.43;;;10.40;;
17727;SDS011;8984;49.268;12.302;2023-04-16T06:43:31;11.67;;;10.10;;
17727;SDS011;8984;49.268;12.302;2023-04-16T06:45:58;14.17;;;11.03;;
17727;SDS011;8984;49.268;12.302;2023-04-16T06:48:26;12.57;;;10.43;;
17727;SDS011;8984;49.268;12.302;2023-04-16T06:50:54;12.53;;;10.40;;
17727;SDS011;8984;49.268;12.302;2023-04-16T06:53:21;12.23;;;9.63;;
17727;SDS011;8984;49.268;12.302;2023-04-16T06:55:48;12.93;;;10.70;;
17727;SDS011;8984;49.268;12.302;2023-04-16T06:58:14;11.60;;;9.57;;
17727;SDS011;8984;49.268;12.302;2023-04-16T07:00:41;17.03;;;14.37;;
17727;SDS011;8984;49.268;12.302;2023-04-16T07:03:08;12.67;;;11.23;;
17727;SDS011;8984;49.268;12.302;2023-04-16T07:05:36;13.47;;;11.70;;
17727;SDS011;8984;49.268;12.302;2023-04-16T07:08:03;11.90;;;10.07;;
17727;SDS011;8984;49.268;12.302;2023-04-16T07:10:30;12.50;;;10.57;;
17727;SDS011;8984;49.268;12.302;2023-04-16T07:12:56;14.80;;;11.73;;
17727;SDS011;8984;49.268;12.302;2023-04-16T07:15:25;15.60;;;11.80;;
17727;SDS011;8984;49.268;12.302;2023-04-16T07:17:52;18.20;;;13.73;;
17727;SDS011;8984;49.268;12.302;2023-04-16T07:20:19;19.03;;;13.03;;
17727;SDS011;8984;49.268;12.302;2023-04-16T07:22:47;14.07;;;11.50;;
17727;SDS011;8984;49.268;12.302;2023-04-16T07:25:14;16.03;;;12.80;;
17727;SDS011;8984;49.268;12.302;2023-04-16T07:27:41;12.00;;;9.90;;
17727;SDS011;8984;49.268;12.302;2023-04-16T07:30:08;11.63;;;9.90;;
17727;SDS011;8984;49.268;12.302;2023-04-16T07:32:35;10.40;;;9.37;;
17727;SDS011;8984;49.268;12.302;2023-04-16T07:38:06;9.93;;;8.93;;
17727;SDS011;8984;49.268;12.302;2023-04-16T07:40:33;10.13;;;9.10;;
17727;SDS011;8984;49.268;12.302;2023-04-16T07:43:01;8.97;;;8.07;;
17727;SDS011;8984;49.268;12.302;2023-04-16T07:45:28;9.10;;;8.17;;
17727;SDS011;8984;49.268;12.302;2023-04-16T07:47:54;10.47;;;8.63;;
17727;SDS011;8984;49.268;12.302;2023-04-16T07:50:21;10.10;;;8.90;;
17727;SDS011;8984;49.268;12.302;2023-04-16T07:52:48;9.57;;;8.03;;
17727;SDS011;8984;49.268;12.302;2023-04-16T07:55:16;8.43;;;7.63;;
17727;SDS011;8984;49.268;12.302;2023-04-16T07:57:43;8.53;;;7.63;;
17727;SDS011;8984;49.268;12.302;2023-04-16T08:00:10;9.70;;;8.67;;
17727;SDS011;8984;49.268;12.302;2023-04-16T08:02:37;9.33;;;8.43;;
17727;SDS011;8984;49.268;12.302;2023-04-16T08:05:04;11.10;;;9.90;;
17727;SDS011;8984;49.268;12.302;2023-04-16T08:07:31;9.67;;;8.67;;
17727;SDS011;8984;49.268;12.302;2023-04-16T08:09:58;9.67;;;8.67;;
17727;SDS011;8984;49.268;12.302;2023-04-16T08:12:26;8.60;;;7.70;;
17727;SDS011;8984;49.268;12.302;2023-04-16T08:14:54;8.60;;;7.70;;
17727;SDS011;8984;49.268;12.302;2023-04-16T08:17:21;8.03;;;7.23;;
17727;SDS011;8984;49.268;12.302;2023-04-16T08:19:48;7.90;;;7.10;;
17727;SDS011;8984;49.268;12.302;2023-04-16T08:22:14;7.93;;;6.53;;
17727;SDS011;8984;49.268;12.302;2023-04-16T08:24:42;6.90;;;6.20;;
17727;SDS011;8984;49.268;12.302;2023-04-16T08:27:09;7.13;;;6.43;;
17727;SDS011;8984;49.268;12.302;2023-04-16T08:29:37;6.30;;;5.70;;
17727;SDS011;8984;49.268;12.302;2023-04-16T08:32:04;6.80;;;6.00;;
17727;SDS011;8984;49.268;12.302;2023-04-16T08:34:31;7.00;;;6.30;;
17727;SDS011;8984;49.268;12.302;2023-04-16T08:36:58;6.13;;;5.53;;
17727;SDS011;8984;49.268;12.302;2023-04-16T08:39:24;6.30;;;5.70;;
17727;SDS011;8984;49.268;12.302;2023-04-16T08:41:51;6.10;;;5.50;;
17727;SDS011;8984;49.268;12.302;2023-04-16T08:44:20;7.00;;;6.30;;
17727;SDS011;8984;49.268;12.302;2023-04-16T08:46:52;6.67;;;5.93;;
17727;SDS011;8984;49.268;12.302;2023-04-16T08:49:21;6.70;;;6.03;;
17727;SDS011;8984;49.268;12.302;2023-04-16T08:51:50;6.93;;;6.23;;
17727;SDS011;8984;49.268;12.302;2023-04-16T08:54:20;6.73;;;5.07;;
17727;SDS011;8984;49.268;12.302;2023-04-16T08:56:56;5.30;;;4.80;;
17727;SDS011;8984;49.268;12.302;2023-04-16T08:59:23;5.80;;;5.20;;
17727;SDS011;8984;49.268;12.302;2023-04-16T09:01:52;5.47;;;4.97;;
17727;SDS011;8984;49.268;12.302;2023-04-16T09:04:22;5.43;;;4.60;;
17727;SDS011;8984;49.268;12.302;2023-04-16T09:06:51;6.37;;;4.63;;
17727;SDS011;8984;49.268;12.302;2023-04-16T09:09:18;5.33;;;4.83;;
17727;SDS011;8984;49.268;12.302;2023-04-16T09:11:48;4.93;;;4.43;;
17727;SDS011;8984;49.268;12.302;2023-04-16T09:14:16;4.70;;;4.30;;
17727;SDS011;8984;49.268;12.302;2023-04-16T09:16:43;6.30;;;5.70;;
17727;SDS011;8984;49.268;12.302;2023-04-16T09:19:12;4.53;;;4.13;;
17727;SDS011;8984;49.268;12.302;2023-04-16T09:21:39;4.77;;;4.37;;
17727;SDS011;8984;49.268;12.302;2023-04-16T09:24:07;4.77;;;4.37;;
17727;SDS011;8984;49.268;12.302;2023-04-16T09:26:34;4.63;;;4.23;;
17727;SDS011;8984;49.268;12.302;2023-04-16T09:29:01;3.90;;;3.60;;
17727;SDS011;8984;49.268;12.302;2023-04-16T09:31:28;4.63;;;4.23;;
17727;SDS011;8984;49.268;12.302;2023-04-16T09:33:59;4.47;;;4.07;;
17727;SDS011;8984;49.268;12.302;2023-04-16T09:36:29;3.83;;;3.53;;
17727;SDS011;8984;49.268;12.302;2023-04-16T09:38:56;3.43;;;3.13;;
17727;SDS011;8984;49.268;12.302;2023-04-16T09:41:24;3.17;;;2.87;;
17727;SDS011;8984;49.268;12.302;2023-04-16T09:43:53;3.40;;;3.10;;
17727;SDS011;8984;49.268;12.302;2023-04-16T09:46:21;3.30;;;3.00;;
17727;SDS011;8984;49.268;12.302;2023-04-16T09:48:48;2.90;;;2.70;;
17727;SDS011;8984;49.268;12.302;2023-04-16T09:51:15;2.50;;;2.30;;
17727;SDS011;8984;49.268;12.302;2023-04-16T09:53:43;2.20;;;2.10;;
17727;SDS011;8984;49.268;12.302;2023-04-16T09:56:10;3.17;;;2.03;;
17727;SDS011;8984;49.268;12.302;2023-04-16T09:58:37;2.17;;;2.00;;
17727;SDS011;8984;49.268;12.302;2023-04-16T10:01:05;2.40;;;2.20;;
17727;SDS011;8984;49.268;12.302;2023-04-16T10:03:34;2.40;;;2.20;;
17727;SDS011;8984;49.268;12.302;2023-04-16T10:06:14;2.23;;;2.03;;
17727;SDS011;8984;49.268;12.302;2023-04-16T10:08:44;2.03;;;1.83;;
17727;SDS011;8984;49.268;12.302;2023-04-16T10:11:12;1.90;;;1.80;;
17727;SDS011;8984;49.268;12.302;2023-04-16T10:13:39;2.40;;;2.20;;
17727;SDS011;8984;49.268;12.302;2023-04-16T10:16:07;2.03;;;1.83;;
17727;SDS011;8984;49.268;12.302;2023-04-16T10:18:34;3.00;;;2.80;;
17727;SDS011;8984;49.268;12.302;2023-04-16T10:21:02;2.43;;;2.23;;
17727;SDS011;8984;49.268;12.302;2023-04-16T10:23:29;4.67;;;2.90;;
17727;SDS011;8984;49.268;12.302;2023-04-16T10:25:59;2.50;;;2.30;;
17727;SDS011;8984;49.268;12.302;2023-04-16T10:28:27;2.60;;;2.40;;
17727;SDS011;8984;49.268;12.302;2023-04-16T10:30:54;4.57;;;2.13;;
17727;SDS011;8984;49.268;12.302;2023-04-16T10:33:23;2.87;;;2.50;;
17727;SDS011;8984;49.268;12.302;2023-04-16T10:35:53;2.83;;;2.63;;
17727;SDS011;8984;49.268;12.302;2023-04-16T10:38:33;2.97;;;2.77;;
17727;SDS011;8984;49.268;12.302;2023-04-16T10:41:04;3.40;;;3.10;;
17727;SDS011;8984;49.268;12.302;2023-04-16T10:43:33;2.50;;;2.30;;
17727;SDS011;8984;49.268;12.302;2023-04-16T10:46:17;2.80;;;2.40;;
17727;SDS011;8984;49.268;12.302;2023-04-16T10:48:45;2.53;;;2.33;;
17727;SDS011;8984;49.268;12.302;2023-04-16T10:51:22;3.00;;;2.80;;
17727;SDS011;8984;49.268;12.302;2023-04-16T10:53:52;3.40;;;3.10;;
17727;SDS011;8984;49.268;12.302;2023-04-16T10:56:24;4.67;;;3.37;;
17727;SDS011;8984;49.268;12.302;2023-04-16T10:58:52;3.03;;;2.67;;
17727;SDS011;8984;49.268;12.302;2023-04-16T11:01:27;6.87;;;4.90;;
17727;SDS011;8984;49.268;12.302;2023-04-16T11:03:57;7.73;;;5.40;;
17727;SDS011;8984;49.268;12.302;2023-04-16T11:06:26;3.40;;;3.10;;
17727;SDS011;8984;49.268;12.302;2023-04-16T11:08:53;6.30;;;5.27;;
17727;SDS011;8984;49.268;12.302;2023-04-16T11:11:21;5.70;;;4.70;;
17727;SDS011;8984;49.268;12.302;2023-04-16T11:13:51;4.60;;;2.97;;
17727;SDS011;8984;49.268;12.302;2023-04-16T11:16:20;3.30;;;3.00;;
17727;SDS011;8984;49.268;12.302;2023-04-16T11:18:47;2.80;;;2.60;;
17727;SDS011;8984;49.268;12.302;2023-04-16T11:21:13;3.93;;;3.53;;
17727;SDS011;8984;49.268;12.302;2023-04-16T11:23:47;4.37;;;3.90;;
17727;SDS011;8984;49.268;12.302;2023-04-16T11:26:19;3.33;;;3.03;;
17727;SDS011;8984;49.268;12.302;2023-04-16T11:28:47;8.03;;;6.37;;
17727;SDS011;8984;49.268;12.302;2023-04-16T11:31:15;3.97;;;3.67;;
17727;SDS011;8984;49.268;12.302;2023-04-16T11:33:42;3.83;;;3.50;;
17727;SDS011;8984;49.268;12.302;2023-04-16T11:36:09;3.47;;;3.17;;
17727;SDS011;8984;49.268;12.302;2023-04-16T11:38:37;3.40;;;3.10;;
17727;SDS011;8984;49.268;12.302;2023-04-16T11:41:07;3.90;;;3.50;;
17727;SDS011;8984;49.268;12.302;2023-04-16T11:43:34;17.53;;;6.40;;
17727;SDS011;8984;49.268;12.302;2023-04-16T11:46:03;24.73;;;6.73;;
17727;SDS011;8984;49.268;12.302;2023-04-16T11:48:47;11.70;;;4.27;;
17727;SDS011;8984;49.268;12.302;2023-04-16T11:51:14;5.20;;;3.83;;
17727;SDS011;8984;49.268;12.302;2023-04-16T11:53:45;3.53;;;3.20;;
17727;SDS011;8984;49.268;12.302;2023-04-16T11:56:13;4.30;;;2.90;;
17727;SDS011;8984;49.268;12.302;2023-04-16T11:58:41;4.87;;;3.00;;
17727;SDS011;8984;49.268;12.302;2023-04-16T12:01:10;6.90;;;3.30;;
17727;SDS011;8984;49.268;12.302;2023-04-16T12:03:40;2.97;;;2.77;;
17727;SDS011;8984;49.268;12.302;2023-04-16T12:06:10;3.67;;;2.80;;
17727;SDS011;8984;49.268;12.302;2023-04-16T12:08:37;2.87;;;2.63;;
17727;SDS011;8984;49.268;12.302;2023-04-16T12:11:04;4.87;;;2.70;;
17727;SDS011;8984;49.268;12.302;2023-04-16T12:13:31;2.50;;;2.20;;
17727;SDS011;8984;49.268;12.302;2023-04-16T12:16:06;3.30;;;2.77;;
17727;SDS011;8984;49.268;12.302;2023-04-16T12:18:57;2.63;;;2.43;;
17727;SDS011;8984;49.268;12.302;2023-04-16T12:21:34;2.93;;;2.70;;
17727;SDS011;8984;49.268;12.302;2023-04-16T12:24:02;3.13;;;2.83;;
17727;SDS011;8984;49.268;12.302;2023-04-16T12:26:35;2.93;;;2.63;;
17727;SDS011;8984;49.268;12.302;2023-04-16T12:29:15;2.70;;;2.50;;
17727;SDS011;8984;49.268;12.302;2023-04-16T12:31:45;3.03;;;2.80;;
17727;SDS011;8984;49.268;12.302;2023-04-16T12:34:12;2.53;;;2.33;;
17727;SDS011;8984;49.268;12.302;2023-04-16T12:36:41;2.73;;;2.50;;
17727;SDS011;8984;49.268;12.302;2023-04-16T12:39:08;3.20;;;2.63;;
17727;SDS011;8984;49.268;12.302;2023-04-16T12:41:36;2.93;;;2.73;;
17727;SDS011;8984;49.268;12.302;2023-04-16T12:44:05;2.90;;;2.70;;
17727;SDS011;8984;49.268;12.302;2023-04-16T12:46:36;2.87;;;2.60;;
17727;SDS011;8984;49.268;12.302;2023-04-16T12:49:05;3.10;;;2.63;;
17727;SDS011;8984;49.268;12.302;2023-04-16T12:51:32;3.07;;;2.73;;
17727;SDS011;8984;49.268;12.302;2023-04-16T12:54:00;2.90;;;2.70;;
17727;SDS011;8984;49.268;12.302;2023-04-16T12:56:27;2.70;;;2.50;;
17727;SDS011;8984;49.268;12.302;2023-04-16T12:58:55;2.67;;;2.47;;
17727;SDS011;8984;49.268;12.302;2023-04-16T13:01:22;3.20;;;2.30;;
17727;SDS011;8984;49.268;12.302;2023-04-16T13:03:49;6.83;;;2.60;;
17727;SDS011;8984;49.268;12.302;2023-04-16T13:06:17;3.53;;;2.37;;
17727;SDS011;8984;49.268;12.302;2023-04-16T13:08:45;2.83;;;2.57;;
17727;SDS011;8984;49.268;12.302;2023-04-16T13:11:11;3.53;;;2.20;;
17727;SDS011;8984;49.268;12.302;2023-04-16T13:13:39;2.20;;;2.00;;
17727;SDS011;8984;49.268;12.302;2023-04-16T13:16:08;2.40;;;2.20;;
17727;SDS011;8984;49.268;12.302;2023-04-16T13:18:36;2.40;;;2.17;;
17727;SDS011;8984;49.268;12.302;2023-04-16T13:21:04;2.40;;;2.20;;
17727;SDS011;8984;49.268;12.302;2023-04-16T13:23:32;1.90;;;1.80;;
17727;SDS011;8984;49.268;12.302;2023-04-16T13:25:59;2.30;;;2.10;;
17727;SDS011;8984;49.268;12.302;2023-04-16T13:28:26;2.20;;;2.00;;
17727;SDS011;8984;49.268;12.302;2023-04-16T13:30:53;2.90;;;2.20;;
17727;SDS011;8984;49.268;12.302;2023-04-16T13:33:20;2.00;;;1.90;;
17727;SDS011;8984;49.268;12.302;2023-04-16T13:35:47;2.30;;;2.10;;
17727;SDS011;8984;49.268;12.302;2023-04-16T13:38:14;2.43;;;2.23;;
17727;SDS011;8984;49.268;12.302;2023-04-16T13:40:43;2.07;;;1.87;;
17727;SDS011;8984;49.268;12.302;2023-04-16T13:43:10;2.23;;;2.03;;
17727;SDS011;8984;49.268;12.302;2023-04-16T13:45:37;2.20;;;2.03;;
17727;SDS011;8984;49.268;12.302;2023-04-16T13:48:06;2.40;;;2.20;;
17727;SDS011;8984;49.268;12.302;2023-04-16T13:50:33;2.50;;;2.30;;
17727;SDS011;8984;49.268;12.302;2023-04-16T13:53:00;3.80;;;2.30;;
17727;SDS011;8984;49.268;12.302;2023-04-16T13:55:29;2.13;;;1.93;;
17727;SDS011;8984;49.268;12.302;2023-04-16T13:57:57;2.47;;;2.20;;
17727;SDS011;8984;49.268;12.302;2023-04-16T14:00:24;2.30;;;2.10;;
17727;SDS011;8984;49.268;12.302;2023-04-16T14:02:51;1.93;;;1.83;;
17727;SDS011;8984;49.268;12.302;2023-04-16T14:05:18;2.33;;;2.13;;
17727;SDS011;8984;49.268;12.302;2023-04-16T14:07:47;2.27;;;2.07;;
17727;SDS011;8984;49.268;12.302;2023-04-16T14:10:13;1.77;;;1.67;;
17727;SDS011;8984;49.268;12.302;2023-04-16T14:12:41;2.40;;;2.20;;
17727;SDS011;8984;49.268;12.302;2023-04-16T14:15:10;2.50;;;2.30;;
17727;SDS011;8984;49.268;12.302;2023-04-16T14:17:38;2.10;;;2.00;;
17727;SDS011;8984;49.268;12.302;2023-04-16T14:20:07;2.10;;;1.90;;
17727;SDS011;8984;49.268;12.302;2023-04-16T14:22:34;1.90;;;1.80;;
17727;SDS011;8984;49.268;12.302;2023-04-16T14:25:01;1.60;;;1.50;;
17727;SDS011;8984;49.268;12.302;2023-04-16T14:27:28;1.97;;;1.87;;
17727;SDS011;8984;49.268;12.302;2023-04-16T14:29:56;2.20;;;2.00;;
17727;SDS011;8984;49.268;12.302;2023-04-16T14:32:24;2.20;;;2.00;;
17727;SDS011;8984;49.268;12.302;2023-04-16T14:34:51;2.30;;;2.10;;
17727;SDS011;8984;49.268;12.302;2023-04-16T14:37:18;2.40;;;2.20;;
17727;SDS011;8984;49.268;12.302;2023-04-16T14:39:45;2.33;;;2.13;;
17727;SDS011;8984;49.268;12.302;2023-04-16T14:42:11;2.10;;;1.90;;
17727;SDS011;8984;49.268;12.302;2023-04-16T14:44:38;2.23;;;2.03;;
17727;SDS011;8984;49.268;12.302;2023-04-16T14:47:05;2.03;;;1.93;;